KLUL/LUL METAR and TAF weather

Enter ICAO airport designator
Station Type Date Time Source
KLUL METAR 2021/06/24 06:15 UTC NOAA

KLUL 240615Z AUTO 00000KT 10SM SCT036 OVC046 25/23 A3007 RMK A02 T02540229


Station Type Date Time Source
KLUL Decoded METAR 2021/06/24 06:15 UTC NOAA

Station name not available
Jun 24, 2021 - 02:15 AM EDT / 2021.06.24 0615 UTC
Wind: Calm:0
Visibility: 10 mile(s):0
Sky conditions: overcast
Temperature: 77.7 F (25.4 C)
Dew Point: 73.2 F (22.9 C)
Relative Humidity: 86%
Pressure (altimeter): 30.07 in. Hg (1018 hPa)
ob: KLUL 240615Z AUTO 00000KT 10SM SCT036 OVC046 25/23 A3007 RMK A02 T02540229
cycle: 6

Station Type Date Time Source
KLUL TAF UTC NOAA

Error!

Example: see airport list